Time;durP1;ratioP1;P1;durP2;ratioP2;P2;SDS_P1;SDS_P2;PMS_P1;PMS_P2;Temp;Humidity;BMP_temperature;BMP_pressure;BME280_temperature;BME280_humidity;BME280_pressure;Samples;Min_cycle;Max_cycle;Signal;HPM_P1;HPM_P2
2022/08/04 00:00:14;;;;;;;8.88;3.45;;;22.60;99.90;;;;;;5070275;28;20050;-75
2022/08/04 00:03:11;;;;;;;7.15;3.70;;;22.50;99.90;;;;;;5092839;28;20036;-76
2022/08/04 00:06:23;;;;;;;8.68;3.53;;;22.50;99.90;;;;;;5088984;28;20031;-75
2022/08/04 00:08:53;;;;;;;8.38;3.85;;;22.50;99.90;;;;;;5030282;28;20667;-75
2022/08/04 00:11:22;;;;;;;7.90;3.58;;;22.40;99.90;;;;;;5031010;28;20038;-75
2022/08/04 00:14:00;;;;;;;7.90;3.53;;;22.40;99.90;;;;;;5029893;28;20145;-74
2022/08/04 00:16:29;;;;;;;7.13;3.42;;;22.40;99.90;;;;;;5029583;28;20037;-75
2022/08/04 00:19:03;;;;;;;7.47;3.55;;;22.40;99.90;;;;;;5031343;28;20030;-75
2022/08/04 00:21:33;;;;;;;9.55;4.22;;;22.40;99.90;;;;;;5030411;28;20133;-75
2022/08/04 00:24:01;;;;;;;6.82;3.55;;;22.40;99.90;;;;;;5029992;28;20109;-75
2022/08/04 00:26:26;;;;;;;6.32;3.60;;;22.40;99.90;;;;;;5030663;28;20021;-74
2022/08/04 00:28:52;;;;;;;9.85;3.90;;;22.30;99.90;;;;;;5030262;28;20042;-74
2022/08/04 00:31:18;;;;;;;10.65;3.45;;;22.30;99.90;;;;;;5030950;28;20056;-75
2022/08/04 00:33:45;;;;;;;10.13;3.67;;;22.30;99.90;;;;;;5030804;28;20030;-75
2022/08/04 00:36:12;;;;;;;8.75;3.60;;;22.30;99.90;;;;;;5026789;28;20022;-75
2022/08/04 00:38:42;;;;;;;8.77;3.35;;;22.30;99.90;;;;;;5027922;28;20026;-75
2022/08/04 00:41:17;;;;;;;9.10;3.53;;;22.30;99.90;;;;;;5015960;28;20029;-75
2022/08/04 00:44:11;;;;;;;7.28;3.92;;;22.30;99.90;;;;;;5090644;28;20048;-74
2022/08/04 00:46:51;;;;;;;6.90;3.95;;;22.30;99.90;;;;;;5076238;28;20020;-75
2022/08/04 00:49:29;;;;;;;6.90;3.78;;;22.30;99.90;;;;;;5092103;28;20032;-75
2022/08/04 00:52:06;;;;;;;11.82;4.20;;;22.30;99.90;;;;;;5091319;28;20110;-75
2022/08/04 00:54:36;;;;;;;10.23;3.70;;;22.20;99.90;;;;;;5088960;28;20017;-74
2022/08/04 00:57:36;;;;;;;8.18;4.22;;;22.20;99.90;;;;;;5090580;28;20028;-74
2022/08/04 01:00:13;;;;;;;7.38;3.60;;;22.20;99.90;;;;;;5082933;28;20016;-75
2022/08/04 01:02:57;;;;;;;6.85;3.90;;;22.20;99.90;;;;;;5068743;28;20021;-75
2022/08/04 01:06:01;;;;;;;6.82;3.83;;;22.10;99.90;;;;;;5090561;28;20056;-75
2022/08/04 01:08:27;;;;;;;8.98;3.78;;;22.20;99.90;;;;;;5086314;28;20032;-74
2022/08/04 01:11:14;;;;;;;7.97;3.85;;;22.10;99.90;;;;;;5091968;28;20028;-74
2022/08/04 01:13:58;;;;;;;6.70;3.22;;;22.20;99.90;;;;;;5090220;28;20048;-74
2022/08/04 01:16:26;;;;;;;9.55;3.30;;;22.10;99.90;;;;;;5081127;28;20032;-76
2022/08/04 01:19:06;;;;;;;12.95;4.15;;;22.10;99.90;;;;;;5090364;28;20044;-74
2022/08/04 01:22:00;;;;;;;9.07;4.10;;;22.10;99.90;;;;;;5080915;28;20024;-74
2022/08/04 01:25:02;;;;;;;7.97;4.00;;;22.00;99.90;;;;;;5038327;28;20046;-75
2022/08/04 01:28:05;;;;;;;9.38;3.95;;;22.00;99.90;;;;;;5048216;28;20051;-75
2022/08/04 01:30:33;;;;;;;10.20;4.25;;;22.00;99.90;;;;;;5046020;28;20021;-76
2022/08/04 01:33:11;;;;;;;8.10;3.78;;;22.00;99.90;;;;;;5044542;28;20041;-74
2022/08/04 01:35:46;;;;;;;12.23;4.00;;;22.00;99.90;;;;;;5040327;28;20059;-74
2022/08/04 01:38:35;;;;;;;7.93;3.95;;;22.00;99.90;;;;;;5046193;28;20024;-75
2022/08/04 01:41:06;;;;;;;7.82;4.10;;;21.90;99.90;;;;;;5030579;28;20022;-75
2022/08/04 01:43:35;;;;;;;9.50;4.18;;;21.90;99.90;;;;;;5049531;28;20089;-74
2022/08/04 01:46:03;;;;;;;9.32;4.13;;;21.90;99.90;;;;;;5058054;28;20020;-76
2022/08/04 01:48:29;;;;;;;7.78;4.25;;;21.90;99.90;;;;;;5038417;28;20040;-76
2022/08/04 01:51:03;;;;;;;7.35;3.90;;;21.90;99.90;;;;;;5052873;28;20029;-75
2022/08/04 01:53:31;;;;;;;9.38;3.67;;;21.90;99.90;;;;;;5037224;28;20267;-77
2022/08/04 01:55:57;;;;;;;6.38;3.85;;;21.90;99.90;;;;;;5035553;28;20036;-75
2022/08/04 01:58:25;;;;;;;11.50;4.10;;;21.80;99.90;;;;;;5042402;28;20017;-75
2022/08/04 02:01:01;;;;;;;14.80;3.70;;;21.80;99.90;;;;;;5041195;28;20476;-75
2022/08/04 02:03:32;;;;;;;7.45;3.80;;;21.80;99.90;;;;;;5038358;28;20022;-75
2022/08/04 02:06:37;;;;;;;12.10;4.15;;;21.80;99.90;;;;;;5033624;28;20040;-74
2022/08/04 02:09:26;;;;;;;9.23;3.83;;;21.80;99.90;;;;;;5048009;28;20031;-75
2022/08/04 02:12:06;;;;;;;9.80;4.10;;;21.80;99.90;;;;;;5047957;28;20076;-74
2022/08/04 02:14:44;;;;;;;9.88;3.95;;;21.80;99.90;;;;;;5041718;28;20025;-75
2022/08/04 02:17:11;;;;;;;7.95;4.00;;;21.70;99.90;;;;;;5040441;28;20068;-75
2022/08/04 02:19:54;;;;;;;9.07;3.90;;;21.70;99.90;;;;;;5045069;28;20026;-74
2022/08/04 02:22:24;;;;;;;9.68;3.72;;;21.70;99.90;;;;;;5038761;28;20018;-75
2022/08/04 02:25:04;;;;;;;7.95;3.83;;;21.70;99.90;;;;;;5078691;28;20040;-75
2022/08/04 02:27:54;;;;;;;7.57;3.67;;;21.70;99.90;;;;;;5087047;28;20040;-76
2022/08/04 02:30:22;;;;;;;9.45;4.07;;;21.70;99.90;;;;;;5087325;28;20023;-75
2022/08/04 02:32:51;;;;;;;9.32;3.58;;;21.70;99.90;;;;;;5082812;28;20044;-75
2022/08/04 02:35:29;;;;;;;8.70;3.40;;;21.70;99.90;;;;;;5088470;28;20047;-75
2022/08/04 02:38:10;;;;;;;9.30;3.75;;;21.70;99.90;;;;;;5090502;28;20020;-76
2022/08/04 02:40:38;;;;;;;10.05;3.85;;;21.70;99.90;;;;;;5084793;28;20024;-75
2022/08/04 02:43:07;;;;;;;9.52;3.55;;;21.60;99.90;;;;;;5089930;28;20029;-75
2022/08/04 02:45:36;;;;;;;8.55;3.60;;;21.60;99.90;;;;;;5093923;28;20024;-75
2022/08/04 02:48:03;;;;;;;7.57;3.53;;;21.60;99.90;;;;;;5094624;28;20017;-74
2022/08/04 02:50:33;;;;;;;7.75;3.53;;;21.60;99.90;;;;;;5093817;28;20027;-74
2022/08/04 02:53:01;;;;;;;11.00;4.25;;;21.60;99.90;;;;;;5094402;28;20035;-74
2022/08/04 02:55:29;;;;;;;6.20;3.75;;;21.60;99.90;;;;;;5095432;28;20017;-75
2022/08/04 02:57:56;;;;;;;8.48;3.67;;;21.50;99.90;;;;;;5095892;28;20028;-76
2022/08/04 03:00:23;;;;;;;9.98;4.00;;;21.50;99.90;;;;;;5093072;28;20039;-75
2022/08/04 03:03:04;;;;;;;7.75;3.85;;;21.50;99.90;;;;;;5092074;28;20037;-75
2022/08/04 03:06:09;;;;;;;8.20;3.70;;;21.50;99.90;;;;;;5091939;28;20044;-75
2022/08/04 03:08:40;;;;;;;9.70;3.80;;;21.50;99.90;;;;;;4997460;28;20050;-75
2022/08/04 03:11:17;;;;;;;7.88;3.53;;;21.40;99.90;;;;;;5011041;28;20049;-74
2022/08/04 03:14:22;;;;;;;10.10;3.85;;;21.40;99.90;;;;;;5000102;28;20106;-75
2022/08/04 03:17:25;;;;;;;5.53;3.50;;;21.40;99.90;;;;;;5006520;28;20088;-75
2022/08/04 03:20:21;;;;;;;11.15;3.75;;;21.40;99.90;;;;;;4995043;28;20031;-74
2022/08/04 03:23:05;;;;;;;;;;;21.40;99.90;;;;;;4999063;28;20051;-75
2022/08/04 03:26:05;;;;;;;6.30;3.60;;;21.30;99.90;;;;;;4998535;28;19905;-74
2022/08/04 03:29:06;;;;;;;8.23;3.45;;;21.30;99.90;;;;;;5003234;28;20056;-75
2022/08/04 03:31:53;;;;;;;7.15;3.50;;;21.30;99.90;;;;;;4997406;28;20027;-75
2022/08/04 03:34:33;;;;;;;8.15;3.63;;;21.30;99.90;;;;;;4997095;28;20109;-74
2022/08/04 03:37:35;;;;;;;6.80;3.60;;;21.30;99.90;;;;;;5006571;28;20034;-75
2022/08/04 03:40:25;;;;;;;11.80;4.15;;;21.30;99.90;;;;;;5001524;28;20042;-75
2022/08/04 03:42:51;;;;;;;9.60;3.90;;;21.30;99.90;;;;;;5002452;28;20073;-74
2022/08/04 03:45:22;;;;;;;6.22;3.78;;;21.20;99.90;;;;;;5036427;28;20058;-74
2022/08/04 03:48:08;;;;;;;6.93;3.92;;;21.20;99.90;;;;;;5091123;28;20036;-77
2022/08/04 03:53:07;;;;;;;9.20;3.72;;;21.20;99.90;;;;;;5089929;28;20082;-74
2022/08/04 03:53:47;;;;;;;8.75;4.07;;;21.20;99.90;;;;;;5082786;28;20036;-74
2022/08/04 03:56:13;;;;;;;8.13;3.42;;;21.20;99.90;;;;;;5090881;28;20051;-75
2022/08/04 03:59:26;;;;;;;8.00;3.60;;;21.10;99.90;;;;;;5090220;28;20024;-75
2022/08/04 04:02:29;;;;;;;9.27;4.05;;;21.10;99.90;;;;;;5093348;28;20028;-75
2022/08/04 04:05:11;;;;;;;8.73;3.70;;;21.10;99.90;;;;;;5080466;28;20032;-75
2022/08/04 04:07:49;;;;;;;10.77;4.00;;;21.10;99.90;;;;;;5092269;28;20096;-75
2022/08/04 04:10:38;;;;;;;9.07;3.63;;;21.10;99.90;;;;;;5082554;28;20029;-76
2022/08/04 04:13:25;;;;;;;9.55;3.70;;;21.10;99.90;;;;;;5094448;28;20036;-75
2022/08/04 04:16:00;;;;;;;6.90;3.53;;;21.00;99.90;;;;;;5092949;28;20186;-76
2022/08/04 04:18:49;;;;;;;8.18;3.28;;;21.00;99.90;;;;;;5092995;28;20005;-76
2022/08/04 04:21:43;;;;;;;11.07;3.30;;;21.00;99.90;;;;;;5093864;28;20522;-75
2022/08/04 04:24:32;;;;;;;8.23;3.08;;;21.00;99.90;;;;;;5081812;28;20052;-77
2022/08/04 04:27:10;;;;;;;8.55;3.20;;;21.00;99.90;;;;;;5094468;28;20024;-76
2022/08/04 04:29:41;;;;;;;9.25;2.80;;;21.00;99.90;;;;;;5095305;28;20122;-75
2022/08/04 04:32:37;;;;;;;7.80;2.92;;;21.00;99.90;;;;;;5077476;28;20060;-75
2022/08/04 04:35:05;;;;;;;11.02;2.97;;;21.00;99.90;;;;;;5093715;28;20035;-75
2022/08/04 04:37:52;;;;;;;9.85;2.88;;;21.00;99.90;;;;;;5092714;28;20028;-74
2022/08/04 04:40:41;;;;;;;7.13;2.67;;;20.90;99.90;;;;;;5091585;28;20016;-77
2022/08/04 04:43:30;;;;;;;5.97;2.58;;;21.00;99.90;;;;;;5088167;28;20095;-76
2022/08/04 04:46:14;;;;;;;6.75;2.90;;;20.90;99.90;;;;;;5094349;28;20054;-76
2022/08/04 04:49:00;;;;;;;10.98;2.70;;;20.90;99.90;;;;;;5095739;28;20096;-76
2022/08/04 04:51:56;;;;;;;10.98;2.75;;;21.00;99.90;;;;;;5092800;28;20016;-76
2022/08/04 04:54:50;;;;;;;9.70;2.58;;;21.00;99.90;;;;;;5081805;28;20071;-75
2022/08/04 04:57:22;;;;;;;8.75;2.88;;;21.00;99.90;;;;;;5079422;28;20496;-75
2022/08/04 05:00:04;;;;;;;10.57;3.20;;;21.00;99.90;;;;;;5083141;28;20052;-74
2022/08/04 05:02:59;;;;;;;8.95;2.53;;;21.00;99.90;;;;;;5083789;28;20029;-76
2022/08/04 05:06:01;;;;;;;13.52;3.38;;;21.00;99.90;;;;;;5051501;28;20059;-75
2022/08/04 05:08:43;;;;;;;7.78;2.95;;;21.00;99.90;;;;;;5079706;28;20399;-75
2022/08/04 05:11:39;;;;;;;8.35;2.78;;;21.00;99.90;;;;;;5074517;28;20445;-75
2022/08/04 05:14:12;;;;;;;7.93;2.55;;;21.10;99.90;;;;;;5077505;28;20041;-76
2022/08/04 05:16:46;;;;;;;7.10;3.03;;;21.10;99.90;;;;;;5076063;28;20028;-76
2022/08/04 05:19:27;;;;;;;8.27;3.10;;;21.10;99.90;;;;;;5081060;28;20093;-75
2022/08/04 05:22:04;;;;;;;14.50;3.22;;;21.10;99.90;;;;;;5083838;28;20029;-75
2022/08/04 05:24:36;;;;;;;9.40;2.58;;;21.10;99.90;;;;;;5085287;28;20127;-76
2022/08/04 05:27:07;;;;;;;8.75;2.63;;;21.10;99.90;;;;;;5088401;28;20078;-74
2022/08/04 05:29:38;;;;;;;11.27;2.70;;;21.20;99.90;;;;;;5082305;28;20047;-74
2022/08/04 05:32:09;;;;;;;8.82;2.88;;;21.10;99.90;;;;;;5079760;28;20028;-73
2022/08/04 05:34:50;;;;;;;11.13;3.00;;;21.10;99.90;;;;;;5085253;28;20059;-74
2022/08/04 05:37:19;;;;;;;9.63;2.53;;;21.20;99.90;;;;;;5083308;28;20069;-73
2022/08/04 05:39:52;;;;;;;11.18;3.10;;;21.20;99.90;;;;;;5081664;28;20435;-74
2022/08/04 05:42:19;;;;;;;7.78;2.78;;;21.10;99.90;;;;;;5074765;28;20020;-75
2022/08/04 05:44:45;;;;;;;8.93;2.67;;;21.10;99.90;;;;;;5080567;28;20064;-74
2022/08/04 05:47:12;;;;;;;12.75;3.05;;;21.10;99.90;;;;;;5082808;28;20051;-74
2022/08/04 05:49:40;;;;;;;7.75;2.70;;;21.10;99.90;;;;;;5082242;28;20042;-73
2022/08/04 05:52:06;;;;;;;8.00;2.58;;;21.10;99.90;;;;;;5087827;28;20032;-74
2022/08/04 05:54:34;;;;;;;9.52;2.88;;;21.10;99.90;;;;;;5083641;28;20036;-74
2022/08/04 05:57:03;;;;;;;8.50;2.70;;;21.10;99.90;;;;;;5078744;28;20084;-73
2022/08/04 05:59:30;;;;;;;11.55;3.22;;;21.10;99.90;;;;;;5085150;28;20063;-74
2022/08/04 06:01:58;;;;;;;10.07;2.88;;;21.10;99.90;;;;;;5082528;28;20044;-73
2022/08/04 06:04:30;;;;;;;8.52;2.90;;;21.10;99.90;;;;;;5087455;28;20009;-73
2022/08/04 06:06:56;;;;;;;6.10;2.83;;;21.10;99.90;;;;;;5084699;28;20047;-73
2022/08/04 06:09:21;;;;;;;11.65;3.03;;;21.10;99.90;;;;;;5081855;28;20024;-73
2022/08/04 06:11:49;;;;;;;9.13;2.85;;;21.10;99.90;;;;;;5084832;28;20036;-73
2022/08/04 06:14:15;;;;;;;9.07;2.92;;;21.20;99.90;;;;;;5087136;28;20040;-73
2022/08/04 06:16:43;;;;;;;9.00;2.83;;;21.20;99.90;;;;;;5088157;28;20046;-73
2022/08/04 06:19:12;;;;;;;10.73;2.92;;;21.20;99.90;;;;;;5087859;28;20032;-72
2022/08/04 06:21:42;;;;;;;6.53;2.70;;;21.30;99.90;;;;;;5088295;28;20528;-73
2022/08/04 06:24:16;;;;;;;11.40;2.65;;;21.30;99.90;;;;;;5087782;28;20041;-73
2022/08/04 06:26:43;;;;;;;7.28;2.88;;;21.40;99.90;;;;;;5074512;28;20056;-73
2022/08/04 06:29:16;;;;;;;10.90;3.15;;;21.40;99.90;;;;;;5087300;28;21915;-72
2022/08/04 06:31:45;;;;;;;6.90;2.67;;;21.40;99.90;;;;;;5077579;28;20032;-72
2022/08/04 06:34:14;;;;;;;10.30;3.08;;;21.50;99.90;;;;;;5071138;28;20032;-73
2022/08/04 06:36:41;;;;;;;8.63;2.90;;;21.50;99.90;;;;;;5065816;28;20028;-74
2022/08/04 06:39:08;;;;;;;12.35;3.08;;;21.60;99.90;;;;;;5072042;28;20013;-75
2022/08/04 06:41:34;;;;;;;9.70;2.92;;;21.60;99.90;;;;;;5069344;28;20024;-75
2022/08/04 06:44:11;;;;;;;9.15;3.00;;;21.70;99.90;;;;;;5080550;28;20013;-74
2022/08/04 06:46:40;;;;;;;6.15;2.80;;;21.70;99.90;;;;;;5087153;28;20060;-73
2022/08/04 06:49:06;;;;;;;12.40;2.88;;;21.70;99.90;;;;;;5070998;28;20029;-74
2022/08/04 06:51:37;;;;;;;8.77;2.45;;;21.80;99.90;;;;;;5085835;28;20021;-73
2022/08/04 06:54:04;;;;;;;11.02;3.00;;;21.90;99.90;;;;;;5089633;28;20020;-75
2022/08/04 06:56:32;;;;;;;8.35;2.78;;;22.00;99.90;;;;;;5086286;28;20012;-74
2022/08/04 06:59:00;;;;;;;9.35;3.17;;;22.00;99.90;;;;;;5088516;28;20076;-73
2022/08/04 07:01:27;;;;;;;7.95;2.33;;;22.10;99.90;;;;;;5085797;28;20012;-74
2022/08/04 07:03:53;;;;;;;6.63;2.60;;;22.20;99.90;;;;;;5086497;28;20016;-73
2022/08/04 07:06:21;;;;;;;5.63;2.25;;;22.20;99.90;;;;;;5076937;28;20025;-73
2022/08/04 07:08:48;;;;;;;7.18;2.60;;;22.30;99.90;;;;;;5074643;28;20020;-74
2022/08/04 07:11:14;;;;;;;10.85;2.33;;;22.30;99.90;;;;;;5088404;28;20369;-73
2022/08/04 07:13:41;;;;;;;6.95;2.40;;;22.40;99.90;;;;;;5074286;28;20024;-74
2022/08/04 07:16:11;;;;;;;8.30;2.58;;;22.50;99.90;;;;;;5091362;28;20013;-74
2022/08/04 07:18:37;;;;;;;6.78;2.13;;;22.50;99.90;;;;;;5078441;28;20020;-73
2022/08/04 07:21:03;;;;;;;6.72;2.20;;;22.60;99.90;;;;;;5080977;28;20047;-74
2022/08/04 07:23:29;;;;;;;12.50;2.55;;;22.60;99.90;;;;;;5078076;28;20060;-72
2022/08/04 07:25:56;;;;;;;12.10;2.83;;;22.70;99.90;;;;;;5079164;28;20024;-73
2022/08/04 07:28:26;;;;;;;6.20;2.15;;;22.70;99.90;;;;;;5084423;28;20017;-73
2022/08/04 07:30:53;;;;;;;4.68;2.17;;;22.80;99.90;;;;;;5091019;28;20058;-73
2022/08/04 07:33:20;;;;;;;7.57;2.10;;;22.80;99.90;;;;;;5089088;28;20076;-74
2022/08/04 07:35:49;;;;;;;6.60;2.60;;;22.90;99.90;;;;;;5081827;28;20048;-73
2022/08/04 07:38:14;;;;;;;6.43;2.38;;;22.80;99.90;;;;;;5091725;28;20051;-74
2022/08/04 07:40:40;;;;;;;9.38;2.72;;;22.90;99.90;;;;;;5092856;28;20044;-74
2022/08/04 07:43:07;;;;;;;7.80;2.33;;;23.00;99.90;;;;;;5091846;28;20026;-74
2022/08/04 07:45:33;;;;;;;5.90;2.15;;;23.10;99.90;;;;;;5079625;28;20020;-72
2022/08/04 07:48:00;;;;;;;7.20;2.30;;;23.10;99.90;;;;;;5089893;28;20025;-73
2022/08/04 07:50:27;;;;;;;9.70;2.30;;;23.20;99.90;;;;;;5087543;28;20005;-74
2022/08/04 07:52:53;;;;;;;8.93;2.38;;;23.40;99.90;;;;;;5095964;28;20051;-73
2022/08/04 07:55:20;;;;;;;6.28;1.90;;;23.50;99.90;;;;;;5082884;28;20017;-73
2022/08/04 07:57:46;;;;;;;5.20;2.10;;;23.50;99.90;;;;;;5091024;28;20088;-73
2022/08/04 08:00:15;;;;;;;5.53;2.13;;;23.60;99.90;;;;;;5092000;28;20119;-73
2022/08/04 08:02:42;;;;;;;6.18;2.28;;;23.70;99.90;;;;;;5087295;28;20032;-73
2022/08/04 08:05:09;;;;;;;7.78;2.00;;;23.90;99.90;;;;;;5085374;28;20096;-73
2022/08/04 08:07:35;;;;;;;8.77;2.30;;;24.00;99.90;;;;;;5087296;28;20016;-73
2022/08/04 08:10:00;;;;;;;6.05;2.08;;;24.20;99.90;;;;;;5078316;28;20424;-74
2022/08/04 08:12:28;;;;;;;6.13;2.30;;;24.20;99.90;;;;;;5082090;28;20030;-73
2022/08/04 08:14:54;;;;;;;5.15;2.08;;;24.30;99.90;;;;;;5084159;28;20066;-73
2022/08/04 08:17:19;;;;;;;7.93;2.20;;;24.40;99.90;;;;;;5080296;28;20043;-74
2022/08/04 08:19:45;;;;;;;4.25;2.20;;;24.50;99.90;;;;;;5074834;28;20115;-74
2022/08/04 08:22:11;;;;;;;8.57;2.30;;;24.60;99.90;;;;;;5053535;28;20025;-74
2022/08/04 08:24:38;;;;;;;4.80;2.05;;;24.70;99.90;;;;;;5066073;28;20127;-75
2022/08/04 08:27:05;;;;;;;4.97;2.17;;;24.70;99.90;;;;;;5056237;28;20064;-74
2022/08/04 08:29:33;;;;;;;6.45;2.35;;;24.90;99.90;;;;;;5073482;28;20039;-74
2022/08/04 08:32:00;;;;;;;4.18;1.92;;;25.00;99.90;;;;;;5072934;28;20025;-74
2022/08/04 08:34:31;;;;;;;4.65;2.30;;;25.10;99.90;;;;;;5054882;28;20058;-74
2022/08/04 08:37:21;;;;;;;6.15;2.15;;;25.10;99.90;;;;;;5072149;28;20393;-74
2022/08/04 08:39:56;;;;;;;3.30;1.70;;;25.20;99.90;;;;;;5071376;28;20036;-74
2022/08/04 08:42:35;;;;;;;;;;;25.20;99.90;;;;;;5072590;28;20021;-74
2022/08/04 08:45:31;;;;;;;4.15;1.88;;;25.40;99.90;;;;;;5069424;28;19930;-74
2022/08/04 08:48:27;;;;;;;8.60;1.85;;;25.70;99.90;;;;;;5071723;28;20103;-74
2022/08/04 08:50:55;;;;;;;3.63;1.30;;;25.90;99.90;;;;;;5069266;28;20020;-74
2022/08/04 08:53:49;;;;;;;4.38;1.90;;;26.20;99.90;;;;;;5070954;28;20334;-74
2022/08/04 08:56:30;;;;;;;3.40;1.70;;;26.40;99.20;;;;;;5069515;28;20028;-74
2022/08/04 08:59:14;;;;;;;4.55;1.88;;;26.50;98.70;;;;;;5072326;28;20435;-73
2022/08/04 09:02:07;;;;;;;5.83;1.77;;;26.60;97.20;;;;;;5071104;28;20495;-74
2022/08/04 09:05:04;;;;;;;5.00;1.90;;;26.50;96.70;;;;;;5068795;28;20532;-73
2022/08/04 09:07:39;;;;;;;4.85;1.88;;;26.40;96.50;;;;;;5061087;28;20044;-74
2022/08/04 09:10:08;;;;;;;4.85;1.55;;;26.40;96.40;;;;;;5065754;28;20027;-73
2022/08/04 09:13:04;;;;;;;3.95;1.70;;;26.50;96.00;;;;;;5064970;28;20024;-73
2022/08/04 09:15:39;;;;;;;4.53;1.70;;;26.70;95.40;;;;;;5062161;28;20354;-73
2022/08/04 09:18:31;;;;;;;4.10;1.60;;;26.80;95.20;;;;;;5071956;28;20020;-74
2022/08/04 09:21:03;;;;;;;4.15;1.33;;;26.80;93.90;;;;;;5070687;28;20036;-75
2022/08/04 09:23:44;;;;;;;3.42;1.50;;;26.60;94.30;;;;;;5067622;28;20493;-74
2022/08/04 09:26:43;;;;;;;3.88;1.48;;;26.60;94.40;;;;;;5070064;28;20386;-74
2022/08/04 09:29:37;;;;;;;5.63;1.30;;;26.50;94.20;;;;;;4969446;28;20079;-73
2022/08/04 09:32:40;;;;;;;2.65;1.30;;;26.40;94.40;;;;;;4968565;28;20027;-73
2022/08/04 09:35:24;;;;;;;4.43;1.50;;;26.40;93.80;;;;;;4968714;28;20460;-73
2022/08/04 09:38:14;;;;;;;5.97;1.88;;;26.30;94.20;;;;;;4970754;28;20483;-73
2022/08/04 09:41:02;;;;;;;3.53;1.70;;;26.30;94.30;;;;;;4971324;28;20524;-74
2022/08/04 09:43:49;;;;;;;4.05;1.30;;;26.30;94.10;;;;;;4971348;28;20121;-73
2022/08/04 09:46:38;;;;;;;3.53;1.40;;;26.20;93.60;;;;;;4970813;28;20071;-73
2022/08/04 09:49:39;;;;;;;2.70;1.58;;;26.10;93.50;;;;;;4963207;28;20072;-73
2022/08/04 09:52:18;;;;;;;2.72;1.42;;;26.10;93.60;;;;;;4969892;28;20496;-73
2022/08/04 09:54:47;;;;;;;10.45;1.88;;;26.00;93.80;;;;;;4972418;28;20054;-73
2022/08/04 09:57:42;;;;;;;2.67;1.20;;;26.00;93.80;;;;;;4975215;28;20186;-73
2022/08/04 10:00:10;;;;;;;2.70;1.30;;;26.00;93.70;;;;;;4951580;28;20487;-73
2022/08/04 10:02:59;;;;;;;3.63;1.38;;;26.00;93.70;;;;;;4972111;28;20440;-73
2022/08/04 10:05:55;;;;;;;3.45;1.42;;;26.00;93.30;;;;;;5017443;28;20073;-73
2022/08/04 10:08:43;;;;;;;4.43;1.50;;;26.00;92.90;;;;;;5062325;28;20540;-73
2022/08/04 10:11:13;;;;;;;2.75;1.30;;;25.90;92.80;;;;;;5064957;28;20067;-74
2022/08/04 10:14:15;;;;;;;3.85;1.63;;;25.90;92.90;;;;;;5039900;28;20436;-73
2022/08/04 10:16:57;;;;;;;2.75;1.50;;;25.90;92.80;;;;;;5073676;28;20040;-72
2022/08/04 10:19:26;;;;;;;3.97;1.48;;;25.90;92.60;;;;;;5075431;28;20055;-72
2022/08/04 10:22:14;;;;;;;4.50;1.58;;;25.90;92.40;;;;;;5050953;28;20415;-72
2022/08/04 10:25:07;;;;;;;2.45;1.40;;;26.00;92.20;;;;;;5046769;28;20052;-71
2022/08/04 10:27:44;;;;;;;3.45;1.60;;;26.00;92.10;;;;;;5070167;28;20112;-72
2022/08/04 10:30:11;;;;;;;4.53;1.48;;;26.00;91.70;;;;;;5048978;28;20032;-72
2022/08/04 10:32:51;;;;;;;4.32;1.58;;;26.00;91.50;;;;;;5068247;28;20027;-72
2022/08/04 10:35:20;;;;;;;3.88;1.60;;;26.10;91.40;;;;;;5071995;28;20051;-72
2022/08/04 10:38:12;;;;;;;4.38;1.30;;;26.10;91.30;;;;;;5076903;28;20123;-72
2022/08/04 10:40:44;;;;;;;4.95;1.40;;;26.10;91.30;;;;;;5072358;28;20028;-72
2022/08/04 10:43:27;;;;;;;6.38;1.75;;;26.20;91.00;;;;;;5077139;28;20017;-71
2022/08/04 10:46:08;;;;;;;6.50;1.60;;;26.20;90.80;;;;;;5079194;28;20031;-73
2022/08/04 10:48:51;;;;;;;4.45;1.55;;;26.30;91.00;;;;;;5078984;28;20107;-75
2022/08/04 10:51:32;;;;;;;4.20;1.60;;;26.40;91.00;;;;;;5076124;28;20028;-74
2022/08/04 10:54:06;;;;;;;4.97;1.40;;;26.50;90.50;;;;;;5074859;28;20054;-72
2022/08/04 10:56:45;;;;;;;4.35;1.52;;;26.70;90.50;;;;;;5069379;28;20028;-72
2022/08/04 10:59:16;;;;;;;4.78;1.85;;;26.90;90.00;;;;;;5070433;28;20037;-73
2022/08/04 11:01:46;;;;;;;5.45;1.73;;;27.00;88.60;;;;;;5062288;28;20404;-72
2022/08/04 11:04:24;;;;;;;3.58;1.48;;;27.20;87.70;;;;;;5055851;28;20021;-73
2022/08/04 11:06:51;;;;;;;4.10;1.50;;;27.30;87.40;;;;;;5074209;28;20021;-70
2022/08/04 11:09:19;;;;;;;4.00;1.45;;;27.50;86.80;;;;;;5070401;28;20099;-71
2022/08/04 11:11:52;;;;;;;3.42;1.73;;;27.70;86.50;;;;;;5070064;28;20103;-72
2022/08/04 11:14:21;;;;;;;3.30;1.40;;;28.00;86.60;;;;;;5080233;28;20025;-71
2022/08/04 11:17:07;;;;;;;4.13;1.33;;;28.20;84.60;;;;;;5073948;28;20020;-71
2022/08/04 11:19:55;;;;;;;3.95;1.45;;;28.30;82.90;;;;;;5079098;28;20012;-72
2022/08/04 11:22:20;;;;;;;6.03;1.50;;;28.40;82.90;;;;;;5079606;28;20074;-71
2022/08/04 11:25:25;;;;;;;5.65;1.60;;;28.60;81.40;;;;;;5069910;28;20025;-71
2022/08/04 11:28:09;;;;;;;4.20;1.23;;;28.80;80.30;;;;;;5079357;28;20446;-71
2022/08/04 11:30:51;;;;;;;3.10;1.70;;;29.00;79.90;;;;;;5066730;28;20029;-72
2022/08/04 11:33:20;;;;;;;3.00;1.55;;;29.10;78.10;;;;;;5085389;28;20082;-72
2022/08/04 11:35:56;;;;;;;3.90;1.55;;;29.10;77.20;;;;;;5066733;28;20063;-72
2022/08/04 11:38:48;;;;;;;3.15;1.30;;;29.10;75.70;;;;;;5084837;28;20032;-72
2022/08/04 11:41:19;;;;;;;2.78;1.50;;;29.00;74.50;;;;;;5066485;28;20024;-72
2022/08/04 11:43:57;;;;;;;5.57;1.58;;;28.80;75.10;;;;;;5077620;28;20186;-73
2022/08/04 11:46:31;;;;;;;2.67;1.58;;;28.70;74.80;;;;;;5085074;28;20086;-71
2022/08/04 11:49:00;;;;;;;;;;;28.80;75.30;;;;;;5080693;28;20063;-71
2022/08/04 11:51:27;;;;;;;2.88;1.30;;;28.90;74.10;;;;;;5082422;28;19939;-71
2022/08/04 11:53:54;;;;;;;3.22;1.35;;;28.90;73.80;;;;;;5085067;28;20021;-72
2022/08/04 11:56:20;;;;;;;3.30;1.38;;;28.90;73.00;;;;;;5082901;28;20036;-72
2022/08/04 11:58:46;;;;;;;5.88;1.50;;;28.90;72.90;;;;;;5077644;28;20028;-72
2022/08/04 12:01:27;;;;;;;4.43;1.20;;;28.90;71.40;;;;;;5086869;28;20025;-72
2022/08/04 12:04:06;;;;;;;4.05;1.50;;;28.90;71.30;;;;;;5069618;28;20036;-72
2022/08/04 12:06:54;;;;;;;4.30;1.50;;;28.90;71.60;;;;;;5086692;28;20372;-72
2022/08/04 12:09:48;;;;;;;4.32;1.50;;;29.10;70.60;;;;;;5088667;28;20028;-72
2022/08/04 12:12:39;;;;;;;3.47;1.40;;;29.30;69.70;;;;;;5056243;28;20040;-71
2022/08/04 12:15:26;;;;;;;2.38;1.30;;;29.30;69.90;;;;;;5082021;28;20040;-71
2022/08/04 12:18:23;;;;;;;2.95;1.10;;;29.30;68.70;;;;;;5066716;28;20020;-72
2022/08/04 12:21:00;;;;;;;3.17;1.30;;;29.20;68.50;;;;;;5066844;28;20040;-72
2022/08/04 12:23:34;;;;;;;3.33;1.20;;;29.10;68.90;;;;;;5085543;28;20446;-69
2022/08/04 12:26:04;;;;;;;5.95;1.50;;;29.10;68.30;;;;;;5084882;28;20084;-69
2022/08/04 12:28:42;;;;;;;3.25;1.40;;;29.00;69.30;;;;;;5066319;28;20027;-70
2022/08/04 12:31:33;;;;;;;6.45;1.67;;;29.20;68.70;;;;;;5075148;28;20025;-71
2022/08/04 12:34:05;;;;;;;4.20;1.50;;;29.40;68.60;;;;;;5077634;28;20111;-70
2022/08/04 12:37:07;;;;;;;6.22;1.77;;;29.40;68.70;;;;;;5077180;28;20069;-71
2022/08/04 12:39:36;;;;;;;5.13;1.45;;;29.30;67.90;;;;;;5056383;28;20115;-70
2022/08/04 12:42:14;;;;;;;3.15;1.27;;;29.30;68.50;;;;;;5072572;28;20027;-71
2022/08/04 12:44:42;;;;;;;3.90;1.48;;;29.30;68.10;;;;;;5081284;28;20024;-71
2022/08/04 12:47:10;;;;;;;3.05;1.40;;;29.40;68.00;;;;;;5080508;28;20028;-70
2022/08/04 12:49:40;;;;;;;3.35;1.70;;;29.30;67.50;;;;;;5076153;28;20055;-71
2022/08/04 12:52:07;;;;;;;4.13;1.40;;;29.10;67.80;;;;;;5080860;28;20024;-71
2022/08/04 12:54:35;;;;;;;3.85;1.48;;;29.10;67.60;;;;;;5057677;28;20044;-71
2022/08/04 12:57:05;;;;;;;3.75;1.65;;;29.00;67.10;;;;;;5053640;28;20025;-72
2022/08/04 12:59:38;;;;;;;4.10;1.45;;;29.10;67.10;;;;;;5078824;28;20021;-71
2022/08/04 13:02:11;;;;;;;5.82;1.60;;;29.10;67.10;;;;;;5076241;28;20075;-71
2022/08/04 13:04:41;;;;;;;4.30;1.30;;;29.10;67.20;;;;;;5079179;28;20017;-72
2022/08/04 13:07:12;;;;;;;3.25;1.50;;;29.10;67.20;;;;;;5075964;28;20032;-71
2022/08/04 13:09:39;;;;;;;3.60;1.63;;;29.00;67.00;;;;;;5080880;28;20473;-71
2022/08/04 13:12:13;;;;;;;3.70;1.70;;;28.90;67.00;;;;;;5082956;28;20017;-72
2022/08/04 13:14:43;;;;;;;6.35;1.70;;;28.80;67.60;;;;;;5083581;28;20016;-71
2022/08/04 13:17:12;;;;;;;4.82;1.77;;;28.80;67.80;;;;;;5076922;28;20029;-72
2022/08/04 13:19:38;;;;;;;4.47;1.50;;;28.70;67.50;;;;;;5078477;28;20037;-71
2022/08/04 13:22:04;;;;;;;6.22;1.73;;;28.70;68.00;;;;;;5077707;28;20020;-71
2022/08/04 13:24:32;;;;;;;6.70;2.25;;;28.60;67.90;;;;;;5081969;28;20058;-71
2022/08/04 13:27:04;;;;;;;7.13;1.70;;;28.50;68.00;;;;;;5065675;28;20078;-71
2022/08/04 13:29:36;;;;;;;4.72;1.75;;;28.50;68.00;;;;;;5069765;28;20033;-71
2022/08/04 13:32:03;;;;;;;4.68;1.67;;;28.60;67.80;;;;;;5065482;28;20032;-70
2022/08/04 13:34:30;;;;;;;6.93;1.98;;;28.60;67.90;;;;;;5066422;28;20021;-70